sensor_id;sensor_type;location;lat;lon;timestamp;pressure;altitude;pressure_sealevel;temperature;humidity
62051;BME280;48008;51.204;6.766;2023-03-03T00:01:13;101757.88;;;1.87;86.47
62051;BME280;48008;51.204;6.766;2023-03-03T00:03:41;101754.41;;;1.86;85.94
62051;BME280;48008;51.204;6.766;2023-03-03T00:06:10;101747.00;;;1.77;86.05
62051;BME280;48008;51.204;6.766;2023-03-03T00:08:38;101752.81;;;1.65;87.12
62051;BME280;48008;51.204;6.766;2023-03-03T00:11:05;101748.44;;;1.46;87.36
62051;BME280;48008;51.204;6.766;2023-03-03T00:13:43;101748.59;;;1.62;86.97
62051;BME280;48008;51.204;6.766;2023-03-03T00:18:52;101755.06;;;1.53;87.10
62051;BME280;48008;51.204;6.766;2023-03-03T00:24:15;101761.66;;;1.62;87.06
62051;BME280;48008;51.204;6.766;2023-03-03T00:26:45;101762.16;;;1.51;87.13
62051;BME280;48008;51.204;6.766;2023-03-03T00:29:35;101763.91;;;1.51;87.51
62051;BME280;48008;51.204;6.766;2023-03-03T00:32:26;101766.97;;;1.61;87.15
62051;BME280;48008;51.204;6.766;2023-03-03T00:35:01;101764.22;;;1.64;87.42
62051;BME280;48008;51.204;6.766;2023-03-03T00:37:43;101767.44;;;1.50;88.17
62051;BME280;48008;51.204;6.766;2023-03-03T00:40:20;101765.81;;;1.47;88.88
62051;BME280;48008;51.204;6.766;2023-03-03T00:42:53;101776.00;;;1.53;88.23
62051;BME280;48008;51.204;6.766;2023-03-03T00:45:55;101775.22;;;1.51;88.70
62051;BME280;48008;51.204;6.766;2023-03-03T00:50:59;101791.75;;;1.71;88.34
62051;BME280;48008;51.204;6.766;2023-03-03T00:53:28;101778.38;;;1.58;88.60
62051;BME280;48008;51.204;6.766;2023-03-03T00:55:56;101777.50;;;1.59;87.84
62051;BME280;48008;51.204;6.766;2023-03-03T00:58:24;101779.03;;;1.63;87.95
62051;BME280;48008;51.204;6.766;2023-03-03T01:00:52;101780.59;;;1.67;88.25
62051;BME280;48008;51.204;6.766;2023-03-03T01:03:25;101782.34;;;1.67;88.45
62051;BME280;48008;51.204;6.766;2023-03-03T01:05:53;101786.81;;;1.65;88.40
62051;BME280;48008;51.204;6.766;2023-03-03T01:08:20;101787.66;;;1.84;88.24
62051;BME280;48008;51.204;6.766;2023-03-03T01:10:50;101799.03;;;1.83;88.13
62051;BME280;48008;51.204;6.766;2023-03-03T01:13:20;101801.22;;;1.92;87.51
62051;BME280;48008;51.204;6.766;2023-03-03T01:15:49;101800.19;;;1.97;87.37
62051;BME280;48008;51.204;6.766;2023-03-03T01:18:16;101798.59;;;1.92;87.60
62051;BME280;48008;51.204;6.766;2023-03-03T01:20:42;101795.78;;;1.78;88.44
62051;BME280;48008;51.204;6.766;2023-03-03T01:23:10;101795.16;;;1.54;89.83
62051;BME280;48008;51.204;6.766;2023-03-03T01:25:37;101797.28;;;1.46;90.14
62051;BME280;48008;51.204;6.766;2023-03-03T01:28:04;101793.75;;;1.66;89.60
62051;BME280;48008;51.204;6.766;2023-03-03T01:30:31;101790.06;;;1.70;89.12
62051;BME280;48008;51.204;6.766;2023-03-03T01:32:58;101799.81;;;1.66;89.23
62051;BME280;48008;51.204;6.766;2023-03-03T01:35:25;101806.53;;;1.72;88.99
62051;BME280;48008;51.204;6.766;2023-03-03T01:37:52;101801.66;;;1.83;88.37
62051;BME280;48008;51.204;6.766;2023-03-03T01:40:22;101799.69;;;1.69;89.38
62051;BME280;48008;51.204;6.766;2023-03-03T01:42:50;101798.00;;;1.87;88.57
62051;BME280;48008;51.204;6.766;2023-03-03T01:45:23;101803.22;;;1.68;89.15
62051;BME280;48008;51.204;6.766;2023-03-03T01:53:20;101800.59;;;1.68;88.67
62051;BME280;48008;51.204;6.766;2023-03-03T01:55:50;101810.19;;;1.49;89.85
62051;BME280;48008;51.204;6.766;2023-03-03T01:58:25;101796.94;;;1.53;89.61
62051;BME280;48008;51.204;6.766;2023-03-03T02:01:00;101797.06;;;1.50;89.67
62051;BME280;48008;51.204;6.766;2023-03-03T02:03:28;101798.47;;;1.58;89.29
62051;BME280;48008;51.204;6.766;2023-03-03T02:05:58;101794.72;;;1.63;89.72
62051;BME280;48008;51.204;6.766;2023-03-03T02:08:33;101795.22;;;1.52;89.55
62051;BME280;48008;51.204;6.766;2023-03-03T02:11:04;101793.31;;;1.56;89.27
62051;BME280;48008;51.204;6.766;2023-03-03T02:13:31;101797.28;;;1.46;89.32
62051;BME280;48008;51.204;6.766;2023-03-03T02:15:58;101799.13;;;1.44;90.26
62051;BME280;48008;51.204;6.766;2023-03-03T02:18:26;101795.94;;;1.56;88.74
62051;BME280;48008;51.204;6.766;2023-03-03T02:21:00;101796.41;;;1.26;90.16
62051;BME280;48008;51.204;6.766;2023-03-03T02:26:27;101804.91;;;1.31;90.11
62051;BME280;48008;51.204;6.766;2023-03-03T02:28:59;101803.19;;;1.30;90.68
62051;BME280;48008;51.204;6.766;2023-03-03T02:31:29;101802.13;;;1.34;90.28
62051;BME280;48008;51.204;6.766;2023-03-03T02:33:56;101801.38;;;1.51;90.07
62051;BME280;48008;51.204;6.766;2023-03-03T02:36:27;101799.53;;;1.53;90.02
62051;BME280;48008;51.204;6.766;2023-03-03T02:39:15;101809.47;;;1.45;89.86
62051;BME280;48008;51.204;6.766;2023-03-03T02:44:52;101804.25;;;1.45;90.62
62051;BME280;48008;51.204;6.766;2023-03-03T02:47:19;101798.13;;;1.65;89.36
62051;BME280;48008;51.204;6.766;2023-03-03T02:49:46;101805.78;;;1.70;88.89
62051;BME280;48008;51.204;6.766;2023-03-03T02:52:12;101798.59;;;1.54;89.70
62051;BME280;48008;51.204;6.766;2023-03-03T02:54:44;101808.22;;;1.54;90.04
62051;BME280;48008;51.204;6.766;2023-03-03T02:57:11;101802.94;;;1.56;90.23
62051;BME280;48008;51.204;6.766;2023-03-03T02:59:37;101804.78;;;1.53;90.24
62051;BME280;48008;51.204;6.766;2023-03-03T03:02:09;101802.28;;;1.50;89.98
62051;BME280;48008;51.204;6.766;2023-03-03T03:04:36;101809.88;;;1.57;90.88
62051;BME280;48008;51.204;6.766;2023-03-03T03:07:03;101816.13;;;1.52;90.30
62051;BME280;48008;51.204;6.766;2023-03-03T03:09:32;101820.47;;;1.53;90.16
62051;BME280;48008;51.204;6.766;2023-03-03T03:11:59;101819.09;;;1.45;91.37
62051;BME280;48008;51.204;6.766;2023-03-03T03:14:30;101825.91;;;1.68;90.34
62051;BME280;48008;51.204;6.766;2023-03-03T03:16:57;101823.22;;;1.50;90.38
62051;BME280;48008;51.204;6.766;2023-03-03T03:19:25;101829.03;;;1.57;91.17
62051;BME280;48008;51.204;6.766;2023-03-03T03:21:53;101824.22;;;1.48;90.85
62051;BME280;48008;51.204;6.766;2023-03-03T03:24:20;101837.78;;;1.56;90.65
62051;BME280;48008;51.204;6.766;2023-03-03T03:26:53;101828.81;;;1.81;89.53
62051;BME280;48008;51.204;6.766;2023-03-03T03:29:21;101828.09;;;1.58;90.05
62051;BME280;48008;51.204;6.766;2023-03-03T03:31:48;101826.91;;;1.65;90.48
62051;BME280;48008;51.204;6.766;2023-03-03T03:34:15;101830.63;;;1.60;90.43
62051;BME280;48008;51.204;6.766;2023-03-03T03:36:42;101817.50;;;1.61;90.08
62051;BME280;48008;51.204;6.766;2023-03-03T03:39:11;101821.41;;;1.71;90.33
62051;BME280;48008;51.204;6.766;2023-03-03T03:41:43;101824.41;;;1.43;91.14
62051;BME280;48008;51.204;6.766;2023-03-03T03:44:09;101836.81;;;1.59;91.48
62051;BME280;48008;51.204;6.766;2023-03-03T03:46:36;101832.56;;;1.75;90.82
62051;BME280;48008;51.204;6.766;2023-03-03T03:49:04;101827.03;;;1.81;89.92
62051;BME280;48008;51.204;6.766;2023-03-03T03:51:30;101822.09;;;1.75;89.99
62051;BME280;48008;51.204;6.766;2023-03-03T03:53:58;101815.41;;;1.69;90.52
62051;BME280;48008;51.204;6.766;2023-03-03T03:56:25;101825.97;;;1.85;90.50
62051;BME280;48008;51.204;6.766;2023-03-03T03:58:55;101836.25;;;1.90;89.12
62051;BME280;48008;51.204;6.766;2023-03-03T04:01:22;101831.22;;;1.85;89.61
62051;BME280;48008;51.204;6.766;2023-03-03T04:03:49;101831.88;;;1.71;90.43
62051;BME280;48008;51.204;6.766;2023-03-03T04:06:19;101827.28;;;1.77;90.38
62051;BME280;48008;51.204;6.766;2023-03-03T04:08:46;101820.13;;;1.61;90.88
62051;BME280;48008;51.204;6.766;2023-03-03T04:11:14;101823.03;;;1.55;90.84
62051;BME280;48008;51.204;6.766;2023-03-03T04:13:42;101813.09;;;1.62;90.89
62051;BME280;48008;51.204;6.766;2023-03-03T04:16:10;101815.72;;;1.62;90.52
62051;BME280;48008;51.204;6.766;2023-03-03T04:18:41;101820.69;;;1.68;90.53
62051;BME280;48008;51.204;6.766;2023-03-03T04:21:12;101827.88;;;1.44;91.02
62051;BME280;48008;51.204;6.766;2023-03-03T04:23:39;101829.22;;;1.52;90.56
62051;BME280;48008;51.204;6.766;2023-03-03T04:26:07;101830.34;;;1.47;91.30
62051;BME280;48008;51.204;6.766;2023-03-03T04:28:34;101842.06;;;1.38;90.96
62051;BME280;48008;51.204;6.766;2023-03-03T04:31:01;101838.81;;;1.33;92.24
62051;BME280;48008;51.204;6.766;2023-03-03T04:33:30;101847.03;;;1.44;92.08
62051;BME280;48008;51.204;6.766;2023-03-03T04:35:58;101835.56;;;1.47;92.30
62051;BME280;48008;51.204;6.766;2023-03-03T04:38:25;101835.22;;;1.54;91.68
62051;BME280;48008;51.204;6.766;2023-03-03T04:40:55;101837.66;;;1.59;90.83
62051;BME280;48008;51.204;6.766;2023-03-03T04:43:24;101836.75;;;1.60;91.07
62051;BME280;48008;51.204;6.766;2023-03-03T04:45:51;101826.75;;;1.68;90.93
62051;BME280;48008;51.204;6.766;2023-03-03T04:48:18;101836.81;;;1.78;89.93
62051;BME280;48008;51.204;6.766;2023-03-03T04:50:45;101843.88;;;1.76;90.03
62051;BME280;48008;51.204;6.766;2023-03-03T04:53:12;101837.16;;;1.70;90.78
62051;BME280;48008;51.204;6.766;2023-03-03T04:55:40;101837.56;;;1.80;90.56
62051;BME280;48008;51.204;6.766;2023-03-03T04:58:07;101842.31;;;1.90;90.35
62051;BME280;48008;51.204;6.766;2023-03-03T05:00:37;101843.66;;;1.61;90.25
62051;BME280;48008;51.204;6.766;2023-03-03T05:03:05;101852.25;;;1.44;91.20
62051;BME280;48008;51.204;6.766;2023-03-03T05:05:32;101848.09;;;1.40;90.92
62051;BME280;48008;51.204;6.766;2023-03-03T05:07:59;101844.44;;;1.24;91.51
62051;BME280;48008;51.204;6.766;2023-03-03T05:10:26;101848.34;;;1.34;91.63
62051;BME280;48008;51.204;6.766;2023-03-03T05:12:53;101852.84;;;1.30;91.63
62051;BME280;48008;51.204;6.766;2023-03-03T05:15:20;101850.63;;;1.42;91.44
62051;BME280;48008;51.204;6.766;2023-03-03T05:17:46;101852.56;;;1.57;90.43
62051;BME280;48008;51.204;6.766;2023-03-03T05:20:13;101851.84;;;1.53;90.62
62051;BME280;48008;51.204;6.766;2023-03-03T05:22:40;101851.72;;;1.57;90.49
62051;BME280;48008;51.204;6.766;2023-03-03T05:25:08;101866.75;;;1.51;90.66
62051;BME280;48008;51.204;6.766;2023-03-03T05:27:36;101861.25;;;1.58;90.79
62051;BME280;48008;51.204;6.766;2023-03-03T05:30:03;101862.44;;;1.50;90.64
62051;BME280;48008;51.204;6.766;2023-03-03T05:32:30;101866.00;;;1.49;89.87
62051;BME280;48008;51.204;6.766;2023-03-03T05:34:57;101867.81;;;1.27;90.90
62051;BME280;48008;51.204;6.766;2023-03-03T05:37:24;101857.03;;;1.34;91.09
62051;BME280;48008;51.204;6.766;2023-03-03T05:39:51;101861.59;;;1.50;90.89
62051;BME280;48008;51.204;6.766;2023-03-03T05:42:17;101865.50;;;1.21;91.16
62051;BME280;48008;51.204;6.766;2023-03-03T05:44:44;101864.22;;;1.09;92.34
62051;BME280;48008;51.204;6.766;2023-03-03T05:47:11;101869.47;;;1.09;92.12
62051;BME280;48008;51.204;6.766;2023-03-03T05:49:38;101867.91;;;1.05;92.37
62051;BME280;48008;51.204;6.766;2023-03-03T05:52:05;101868.44;;;1.13;91.67
62051;BME280;48008;51.204;6.766;2023-03-03T05:54:32;101872.78;;;1.12;92.26
62051;BME280;48008;51.204;6.766;2023-03-03T05:56:58;101865.53;;;1.40;91.08
62051;BME280;48008;51.204;6.766;2023-03-03T05:59:25;101863.84;;;1.39;90.42
62051;BME280;48008;51.204;6.766;2023-03-03T06:01:52;101862.34;;;1.33;90.85
62051;BME280;48008;51.204;6.766;2023-03-03T06:04:19;101865.72;;;1.14;91.74
62051;BME280;48008;51.204;6.766;2023-03-03T06:06:45;101866.84;;;1.29;91.38
62051;BME280;48008;51.204;6.766;2023-03-03T06:09:12;101869.31;;;1.32;90.92
62051;BME280;48008;51.204;6.766;2023-03-03T06:11:39;101874.44;;;1.36;91.10
62051;BME280;48008;51.204;6.766;2023-03-03T06:14:05;101881.28;;;1.18;91.25
62051;BME280;48008;51.204;6.766;2023-03-03T06:16:32;101893.00;;;1.29;91.10
62051;BME280;48008;51.204;6.766;2023-03-03T06:18:59;101895.69;;;1.28;90.59
62051;BME280;48008;51.204;6.766;2023-03-03T06:21:26;101907.31;;;1.41;90.22
62051;BME280;48008;51.204;6.766;2023-03-03T06:23:53;101907.69;;;1.11;91.75
62051;BME280;48008;51.204;6.766;2023-03-03T06:26:20;101904.44;;;1.27;90.96
62051;BME280;48008;51.204;6.766;2023-03-03T06:28:46;101912.06;;;1.11;91.23
62051;BME280;48008;51.204;6.766;2023-03-03T06:31:15;101915.00;;;1.03;91.73
62051;BME280;48008;51.204;6.766;2023-03-03T06:33:44;101910.38;;;1.10;92.10
62051;BME280;48008;51.204;6.766;2023-03-03T06:36:11;101910.88;;;1.18;91.18
62051;BME280;48008;51.204;6.766;2023-03-03T06:38:38;101911.94;;;0.93;92.25
62051;BME280;48008;51.204;6.766;2023-03-03T06:41:05;101920.59;;;0.94;92.72
62051;BME280;48008;51.204;6.766;2023-03-03T06:43:34;101923.03;;;0.99;92.22
62051;BME280;48008;51.204;6.766;2023-03-03T06:46:03;101923.97;;;0.75;93.71
62051;BME280;48008;51.204;6.766;2023-03-03T06:48:30;101930.88;;;0.99;93.16
62051;BME280;48008;51.204;6.766;2023-03-03T06:50:59;101930.16;;;0.95;92.80
62051;BME280;48008;51.204;6.766;2023-03-03T06:53:27;101936.41;;;0.91;92.67
62051;BME280;48008;51.204;6.766;2023-03-03T06:55:55;101935.50;;;0.92;93.92
62051;BME280;48008;51.204;6.766;2023-03-03T06:58:25;101937.94;;;0.97;93.34
62051;BME280;48008;51.204;6.766;2023-03-03T07:00:56;101940.56;;;0.97;92.50
62051;BME280;48008;51.204;6.766;2023-03-03T07:03:25;101939.53;;;0.79;93.37
62051;BME280;48008;51.204;6.766;2023-03-03T07:05:55;101949.41;;;0.92;92.68
62051;BME280;48008;51.204;6.766;2023-03-03T07:08:23;101943.03;;;1.00;92.38
62051;BME280;48008;51.204;6.766;2023-03-03T07:10:51;101946.41;;;1.02;92.25
62051;BME280;48008;51.204;6.766;2023-03-03T07:13:23;101942.13;;;1.21;92.05
62051;BME280;48008;51.204;6.766;2023-03-03T07:15:53;101944.09;;;1.16;91.22
62051;BME280;48008;51.204;6.766;2023-03-03T07:20:55;101945.63;;;1.42;90.56
62051;BME280;48008;51.204;6.766;2023-03-03T07:23:27;101948.94;;;1.25;91.03
62051;BME280;48008;51.204;6.766;2023-03-03T07:25:54;101944.81;;;1.20;91.21
62051;BME280;48008;51.204;6.766;2023-03-03T07:28:26;101948.78;;;1.08;91.56
62051;BME280;48008;51.204;6.766;2023-03-03T07:30:55;101956.19;;;1.19;92.40
62051;BME280;48008;51.204;6.766;2023-03-03T07:33:26;101960.25;;;1.26;91.90
62051;BME280;48008;51.204;6.766;2023-03-03T07:35:56;101967.16;;;1.27;91.61
62051;BME280;48008;51.204;6.766;2023-03-03T07:41:12;101965.56;;;1.45;90.82
62051;BME280;48008;51.204;6.766;2023-03-03T07:43:52;101965.22;;;1.52;90.51
62051;BME280;48008;51.204;6.766;2023-03-03T07:46:26;101967.59;;;1.59;90.35
62051;BME280;48008;51.204;6.766;2023-03-03T07:48:56;101970.97;;;1.61;89.68
62051;BME280;48008;51.204;6.766;2023-03-03T07:51:31;101977.06;;;1.61;89.80
62051;BME280;48008;51.204;6.766;2023-03-03T07:54:16;101963.63;;;1.69;89.25
62051;BME280;48008;51.204;6.766;2023-03-03T07:56:46;101977.69;;;1.87;88.57
62051;BME280;48008;51.204;6.766;2023-03-03T07:59:20;101984.81;;;1.83;87.90
62051;BME280;48008;51.204;6.766;2023-03-03T08:01:51;101985.75;;;1.82;87.37
62051;BME280;48008;51.204;6.766;2023-03-03T08:06:57;101992.69;;;1.63;86.59
62051;BME280;48008;51.204;6.766;2023-03-03T08:12:12;102005.00;;;1.40;87.80
62051;BME280;48008;51.204;6.766;2023-03-03T08:14:42;102005.53;;;1.26;87.66
62051;BME280;48008;51.204;6.766;2023-03-03T08:17:18;102006.16;;;1.33;88.73
62051;BME280;48008;51.204;6.766;2023-03-03T08:19:47;102011.91;;;1.41;87.38
62051;BME280;48008;51.204;6.766;2023-03-03T08:22:17;102017.50;;;1.32;88.31
62051;BME280;48008;51.204;6.766;2023-03-03T08:24:44;102024.75;;;1.25;88.81
62051;BME280;48008;51.204;6.766;2023-03-03T08:27:11;102018.63;;;1.26;88.43
62051;BME280;48008;51.204;6.766;2023-03-03T08:29:38;102017.88;;;1.23;88.21
62051;BME280;48008;51.204;6.766;2023-03-03T08:32:05;102024.56;;;1.30;88.63
62051;BME280;48008;51.204;6.766;2023-03-03T08:34:31;102020.97;;;1.32;87.57
62051;BME280;48008;51.204;6.766;2023-03-03T08:36:58;102027.31;;;1.47;87.52
62051;BME280;48008;51.204;6.766;2023-03-03T08:39:25;102025.13;;;1.59;86.26
62051;BME280;48008;51.204;6.766;2023-03-03T08:41:52;102030.50;;;1.56;87.12
62051;BME280;48008;51.204;6.766;2023-03-03T08:44:19;102018.72;;;1.66;86.61
62051;BME280;48008;51.204;6.766;2023-03-03T08:46:46;102029.13;;;1.88;86.07
62051;BME280;48008;51.204;6.766;2023-03-03T08:49:13;102031.03;;;1.84;85.40
62051;BME280;48008;51.204;6.766;2023-03-03T08:51:41;102035.66;;;1.78;85.54
62051;BME280;48008;51.204;6.766;2023-03-03T08:54:07;102036.91;;;1.89;84.80
62051;BME280;48008;51.204;6.766;2023-03-03T08:56:46;102033.97;;;1.97;84.82
62051;BME280;48008;51.204;6.766;2023-03-03T08:59:13;102032.47;;;1.91;84.60
62051;BME280;48008;51.204;6.766;2023-03-03T09:01:39;102040.97;;;1.97;85.82
62051;BME280;48008;51.204;6.766;2023-03-03T09:04:09;102048.88;;;1.95;84.96
62051;BME280;48008;51.204;6.766;2023-03-03T09:06:36;102045.25;;;1.98;85.09
62051;BME280;48008;51.204;6.766;2023-03-03T09:09:03;102051.22;;;2.01;84.77
62051;BME280;48008;51.204;6.766;2023-03-03T09:11:30;102042.53;;;2.01;84.77
62051;BME280;48008;51.204;6.766;2023-03-03T09:14:05;102045.03;;;2.04;84.56
62051;BME280;48008;51.204;6.766;2023-03-03T09:16:37;102048.00;;;2.15;84.56
62051;BME280;48008;51.204;6.766;2023-03-03T09:19:25;102054.75;;;2.21;83.73
62051;BME280;48008;51.204;6.766;2023-03-03T09:21:54;102052.94;;;2.02;83.35
62051;BME280;48008;51.204;6.766;2023-03-03T09:24:25;102054.13;;;1.95;83.54
62051;BME280;48008;51.204;6.766;2023-03-03T09:26:52;102053.25;;;1.95;83.69
62051;BME280;48008;51.204;6.766;2023-03-03T09:29:26;102053.13;;;1.98;84.09
62051;BME280;48008;51.204;6.766;2023-03-03T09:31:56;102063.59;;;1.98;83.06
62051;BME280;48008;51.204;6.766;2023-03-03T09:34:41;102072.16;;;2.01;83.93
62051;BME280;48008;51.204;6.766;2023-03-03T09:39:50;102075.91;;;1.96;83.36
62051;BME280;48008;51.204;6.766;2023-03-03T09:48:43;102078.50;;;1.75;84.55
62051;BME280;48008;51.204;6.766;2023-03-03T09:51:25;102079.25;;;1.79;85.40
62051;BME280;48008;51.204;6.766;2023-03-03T09:56:59;102083.31;;;1.86;84.92
62051;BME280;48008;51.204;6.766;2023-03-03T09:59:39;102083.03;;;1.71;84.95
62051;BME280;48008;51.204;6.766;2023-03-03T10:02:37;102081.78;;;1.80;85.11
62051;BME280;48008;51.204;6.766;2023-03-03T10:05:16;102079.63;;;1.69;85.23
62051;BME280;48008;51.204;6.766;2023-03-03T10:08:02;102078.63;;;1.72;85.34
62051;BME280;48008;51.204;6.766;2023-03-03T10:11:04;102087.91;;;1.59;85.46
62051;BME280;48008;51.204;6.766;2023-03-03T10:19:47;102086.41;;;1.53;85.78
62051;BME280;48008;51.204;6.766;2023-03-03T10:22:34;102089.31;;;1.88;85.74
62051;BME280;48008;51.204;6.766;2023-03-03T10:25:41;102088.06;;;2.17;84.27
62051;BME280;48008;51.204;6.766;2023-03-03T10:28:44;102093.44;;;2.54;83.24
62051;BME280;48008;51.204;6.766;2023-03-03T10:31:53;102088.41;;;2.49;82.18
62051;BME280;48008;51.204;6.766;2023-03-03T10:34:51;102091.47;;;2.78;81.99
62051;BME280;48008;51.204;6.766;2023-03-03T10:40:36;102087.78;;;2.82;80.96
62051;BME280;48008;51.204;6.766;2023-03-03T10:43:44;102082.28;;;2.88;79.96
62051;BME280;48008;51.204;6.766;2023-03-03T10:46:23;102087.25;;;2.36;80.20
62051;BME280;48008;51.204;6.766;2023-03-03T10:55:38;102087.78;;;2.23;81.35
62051;BME280;48008;51.204;6.766;2023-03-03T10:58:19;102108.47;;;2.29;81.66
62051;BME280;48008;51.204;6.766;2023-03-03T11:01:03;102095.53;;;2.45;80.90
62051;BME280;48008;51.204;6.766;2023-03-03T11:03:51;102099.75;;;2.68;80.33
62051;BME280;48008;51.204;6.766;2023-03-03T11:20:58;102098.47;;;2.96;78.96
62051;BME280;48008;51.204;6.766;2023-03-03T11:23:45;102091.81;;;3.08;78.95
62051;BME280;48008;51.204;6.766;2023-03-03T11:26:40;102098.91;;;3.06;78.80
62051;BME280;48008;51.204;6.766;2023-03-03T11:29:34;102094.13;;;3.33;77.95
62051;BME280;48008;51.204;6.766;2023-03-03T11:32:26;102092.22;;;3.18;77.50
62051;BME280;48008;51.204;6.766;2023-03-03T11:35:16;102086.78;;;3.22;77.58
62051;BME280;48008;51.204;6.766;2023-03-03T11:39:08;102086.06;;;3.19;78.29
62051;BME280;48008;51.204;6.766;2023-03-03T11:41:03;102083.66;;;3.14;77.31
62051;BME280;48008;51.204;6.766;2023-03-03T11:43:41;102084.53;;;3.51;77.50
62051;BME280;48008;51.204;6.766;2023-03-03T11:46:13;102080.72;;;3.74;76.54
62051;BME280;48008;51.204;6.766;2023-03-03T11:48:53;102074.19;;;3.83;75.65
62051;BME280;48008;51.204;6.766;2023-03-03T11:51:49;102076.72;;;3.67;74.83
62051;BME280;48008;51.204;6.766;2023-03-03T11:57:30;102076.78;;;4.51;71.60
62051;BME280;48008;51.204;6.766;2023-03-03T12:00:13;102074.41;;;5.26;69.77
62051;BME280;48008;51.204;6.766;2023-03-03T12:03:08;102067.56;;;5.08;68.66
62051;BME280;48008;51.204;6.766;2023-03-03T12:11:54;102062.63;;;5.02;68.42
62051;BME280;48008;51.204;6.766;2023-03-03T12:14:46;102061.59;;;4.40;70.13
62051;BME280;48008;51.204;6.766;2023-03-03T12:17:27;102051.06;;;4.56;70.25
62051;BME280;48008;51.204;6.766;2023-03-03T12:20:17;102051.84;;;4.74;71.15
62051;BME280;48008;51.204;6.766;2023-03-03T12:23:10;102055.25;;;4.27;70.19
62051;BME280;48008;51.204;6.766;2023-03-03T12:25:45;102055.78;;;4.34;72.57
62051;BME280;48008;51.204;6.766;2023-03-03T12:28:24;102044.31;;;4.68;70.94
62051;BME280;48008;51.204;6.766;2023-03-03T12:31:16;102050.13;;;4.41;70.86
62051;BME280;48008;51.204;6.766;2023-03-03T12:33:58;102049.88;;;4.13;72.83
62051;BME280;48008;51.204;6.766;2023-03-03T12:36:58;102046.22;;;3.99;72.93
62051;BME280;48008;51.204;6.766;2023-03-03T12:39:51;102047.38;;;3.94;73.52
62051;BME280;48008;51.204;6.766;2023-03-03T12:45:40;102034.41;;;4.73;70.86
62051;BME280;48008;51.204;6.766;2023-03-03T12:48:20;102041.16;;;5.09;70.21
62051;BME280;48008;51.204;6.766;2023-03-03T12:50:56;102039.69;;;5.35;68.36
62051;BME280;48008;51.204;6.766;2023-03-03T12:53:51;102039.31;;;5.42;68.40
62051;BME280;48008;51.204;6.766;2023-03-03T12:56:39;102041.16;;;5.55;67.56
62051;BME280;48008;51.204;6.766;2023-03-03T12:59:24;102041.38;;;5.67;66.38
62051;BME280;48008;51.204;6.766;2023-03-03T13:05:03;102036.97;;;5.82;65.65
62051;BME280;48008;51.204;6.766;2023-03-03T13:07:42;102044.88;;;5.82;65.51
62051;BME280;48008;51.204;6.766;2023-03-03T13:10:51;102040.66;;;5.79;65.65
62051;BME280;48008;51.204;6.766;2023-03-03T13:13:13;102043.97;;;5.83;65.38
62051;BME280;48008;51.204;6.766;2023-03-03T13:18:59;102041.66;;;5.62;65.99
62051;BME280;48008;51.204;6.766;2023-03-03T13:21:34;102041.91;;;5.57;66.43
62051;BME280;48008;51.204;6.766;2023-03-03T13:24:13;102033.44;;;5.52;66.88
62051;BME280;48008;51.204;6.766;2023-03-03T13:26:55;102028.09;;;5.54;66.45
62051;BME280;48008;51.204;6.766;2023-03-03T13:29:32;102038.84;;;5.35;66.51
62051;BME280;48008;51.204;6.766;2023-03-03T13:32:09;102046.75;;;5.35;65.96
62051;BME280;48008;51.204;6.766;2023-03-03T13:35:19;102033.38;;;5.38;66.35
62051;BME280;48008;51.204;6.766;2023-03-03T13:37:52;102033.34;;;5.54;66.80
62051;BME280;48008;51.204;6.766;2023-03-03T13:40:23;102036.03;;;5.68;66.99
62051;BME280;48008;51.204;6.766;2023-03-03T13:42:56;102030.03;;;5.81;66.37
62051;BME280;48008;51.204;6.766;2023-03-03T13:45:34;102024.88;;;5.93;65.37
62051;BME280;48008;51.204;6.766;2023-03-03T13:48:36;102022.34;;;5.92;64.49
62051;BME280;48008;51.204;6.766;2023-03-03T13:51:47;102030.94;;;6.10;64.56
62051;BME280;48008;51.204;6.766;2023-03-03T14:01:05;102024.63;;;6.41;62.98
62051;BME280;48008;51.204;6.766;2023-03-03T14:06:21;102020.00;;;6.45;62.68
62051;BME280;48008;51.204;6.766;2023-03-03T14:11:42;102025.19;;;6.32;63.44
62051;BME280;48008;51.204;6.766;2023-03-03T14:17:07;102025.38;;;6.00;63.78
62051;BME280;48008;51.204;6.766;2023-03-03T14:19:39;102019.75;;;6.21;63.23
62051;BME280;48008;51.204;6.766;2023-03-03T14:25:09;102015.72;;;6.29;62.76
62051;BME280;48008;51.204;6.766;2023-03-03T14:30:35;102003.44;;;6.57;61.53
62051;BME280;48008;51.204;6.766;2023-03-03T14:36:01;101991.78;;;7.28;59.41
62051;BME280;48008;51.204;6.766;2023-03-03T14:43:43;101996.56;;;8.76;54.69
62051;BME280;48008;51.204;6.766;2023-03-03T14:48:58;101988.66;;;9.35;52.41
62051;BME280;48008;51.204;6.766;2023-03-03T14:51:37;101981.16;;;9.65;51.28
62051;BME280;48008;51.204;6.766;2023-03-03T14:54:18;101981.16;;;9.87;50.73
62051;BME280;48008;51.204;6.766;2023-03-03T14:57:16;101973.94;;;9.78;50.69
62051;BME280;48008;51.204;6.766;2023-03-03T15:00:01;101977.91;;;9.84;50.61
62051;BME280;48008;51.204;6.766;2023-03-03T15:03:26;101975.16;;;9.85;50.41
62051;BME280;48008;51.204;6.766;2023-03-03T15:05:48;101973.31;;;9.74;50.82
62051;BME280;48008;51.204;6.766;2023-03-03T15:08:23;101977.72;;;9.51;51.02
62051;BME280;48008;51.204;6.766;2023-03-03T15:10:53;101971.47;;;9.52;50.75
62051;BME280;48008;51.204;6.766;2023-03-03T15:21:36;101969.94;;;9.14;51.92
62051;BME280;48008;51.204;6.766;2023-03-03T15:24:19;101969.88;;;9.03;51.99
62051;BME280;48008;51.204;6.766;2023-03-03T15:26:54;101960.25;;;9.02;52.11
62051;BME280;48008;51.204;6.766;2023-03-03T15:29:50;101964.50;;;8.80;52.53
62051;BME280;48008;51.204;6.766;2023-03-03T15:32:32;101955.19;;;8.75;53.23
62051;BME280;48008;51.204;6.766;2023-03-03T15:35:22;101951.88;;;8.60;53.36
62051;BME280;48008;51.204;6.766;2023-03-03T15:37:57;101947.38;;;8.36;54.24
62051;BME280;48008;51.204;6.766;2023-03-03T15:40:35;101949.19;;;8.23;54.65
62051;BME280;48008;51.204;6.766;2023-03-03T15:43:19;101953.69;;;8.10;55.16
62051;BME280;48008;51.204;6.766;2023-03-03T15:46:12;101954.19;;;8.02;55.49